Time;durP1;ratioP1;P1;durP2;ratioP2;P2;SDS_P1;SDS_P2;PMS_P1;PMS_P2;Temp;Humidity;BMP_temperature;BMP_pressure;BME280_temperature;BME280_humidity;BME280_pressure;Samples;Min_cycle;Max_cycle;Signal;HPM_P1;HPM_P2
2021/10/15 00:00:39;;;;;;;;;3.00;2.75;;;;;13.13;76.92;100632.88;146604;703;46016;-72
2021/10/15 00:03:19;;;;;;;;;4.00;2.00;;;;;13.15;76.33;100636.44;146609;701;46012;-74
2021/10/15 00:05:53;;;;;;;;;3.00;3.00;;;;;13.17;75.79;100635.66;146603;569;46016;-73
2021/10/15 00:08:27;;;;;;;;;4.25;3.75;;;;;13.21;76.30;100627.97;146609;691;46020;-72
2021/10/15 00:11:01;;;;;;;;;3.75;2.75;;;;;13.18;76.84;100621.81;146604;689;46017;-72
2021/10/15 00:13:34;;;;;;;;;2.00;2.00;;;;;13.17;76.62;100630.44;146610;591;45021;-73
2021/10/15 00:16:09;;;;;;;;;2.00;2.00;;;;;13.12;76.57;100634.59;146604;563;46016;-72
2021/10/15 00:18:43;;;;;;;;;4.33;3.00;;;;;13.09;76.98;100647.50;146605;566;46020;-73
2021/10/15 00:21:17;;;;;;;;;4.75;4.50;;;;;13.07;77.54;100640.44;146606;637;46012;-73
2021/10/15 00:23:51;;;;;;;;;2.00;2.00;;;;;13.05;77.50;100631.69;146606;590;46012;-73
2021/10/15 00:26:25;;;;;;;;;2.67;2.00;;;;;12.98;78.56;100630.56;146603;662;46017;-73
2021/10/15 00:28:59;;;;;;;;;2.00;2.00;;;;;12.93;78.20;100637.31;146610;591;45022;-73
2021/10/15 00:31:32;;;;;;;;;1.50;1.50;;;;;12.88;78.04;100631.91;146603;655;46016;-73
2021/10/15 00:34:07;;;;;;;;;2.00;2.00;;;;;12.85;78.39;100631.78;146607;605;46021;-73
2021/10/15 00:36:40;;;;;;;;;2.67;2.33;;;;;12.84;77.41;100630.00;146605;631;46028;-74
2021/10/15 00:39:15;;;;;;;;;1.50;1.50;;;;;12.85;77.24;100628.28;146607;563;47012;-71
2021/10/15 00:41:48;;;;;;;;;1.00;1.00;;;;;12.87;78.04;100629.25;146605;580;46017;-71
2021/10/15 00:44:23;;;;;;;;;1.00;1.00;;;;;12.88;76.98;100625.81;146607;587;47008;-71
2021/10/15 00:46:57;;;;;;;;;3.33;3.00;;;;;12.91;77.06;100615.53;146607;588;45913;-72
2021/10/15 00:49:30;;;;;;;;;0.67;0.67;;;;;12.95;77.02;100615.69;146607;606;46010;-72
2021/10/15 00:52:05;;;;;;;;;2.33;1.33;;;;;12.97;77.76;100615.78;146603;609;47012;-71
2021/10/15 00:54:39;;;;;;;;;1.00;1.00;;;;;12.96;77.14;100619.22;146610;564;46012;-72
2021/10/15 00:57:18;;;;;;;;;4.00;3.33;;;;;12.98;77.70;100606.25;146606;577;46019;-72
2021/10/15 00:59:53;;;;;;;;;2.33;2.33;;;;;12.99;77.91;100600.19;146608;589;46021;-71
2021/10/15 01:02:27;;;;;;;;;2.00;2.00;;;;;12.96;77.81;100595.78;146604;629;46033;-71
2021/10/15 01:05:01;;;;;;;;;2.50;2.50;;;;;12.97;78.04;100597.56;146600;709;47012;-72
2021/10/15 01:07:35;;;;;;;;;2.00;2.00;;;;;12.98;77.42;100582.81;146605;564;46016;-72
2021/10/15 01:10:10;;;;;;;;;2.50;2.50;;;;;12.99;77.28;100571.56;146607;579;46010;-72
2021/10/15 01:12:45;;;;;;;;;2.00;2.00;;;;;12.97;77.25;100574.12;146607;573;46012;-72
2021/10/15 01:15:19;;;;;;;;;1.67;1.33;;;;;12.96;78.39;100574.97;146607;622;46020;-72
2021/10/15 01:17:56;;;;;;;;;3.00;2.00;;;;;12.95;77.23;100574.06;146602;588;46017;-71
2021/10/15 01:20:30;;;;;;;;;2.33;2.00;;;;;12.98;77.13;100570.69;146609;597;46020;-72
2021/10/15 01:23:03;;;;;;;;;1.67;1.67;;;;;13.01;77.08;100565.59;146603;630;46016;-72
2021/10/15 01:25:39;;;;;;;;;2.00;1.00;;;;;13.03;77.04;100560.47;146608;602;46021;-72
2021/10/15 01:28:13;;;;;;;;;3.00;1.67;;;;;13.05;77.47;100554.50;146604;593;46012;-72
2021/10/15 01:30:46;;;;;;;;;2.00;2.00;;;;;13.05;77.66;100540.56;146607;620;46020;-71
2021/10/15 01:33:21;;;;;;;;;3.00;3.00;;;;;13.05;77.21;100540.56;146599;577;46018;-74
2021/10/15 01:35:55;;;;;;;;;2.00;2.00;;;;;13.05;76.87;100538.87;146607;577;46020;-74
2021/10/15 01:38:29;;;;;;;;;2.00;2.00;;;;;13.07;77.38;100537.22;146605;646;47012;-74
2021/10/15 01:41:03;;;;;;;;;2.00;2.00;;;;;13.06;77.56;100526.75;146605;655;46021;-73
2021/10/15 01:43:37;;;;;;;;;3.00;2.00;;;;;13.03;77.60;100522.31;146605;692;46018;-73
2021/10/15 01:46:11;;;;;;;;;0.67;0.67;;;;;12.99;76.86;100529.94;146605;618;46020;-73
2021/10/15 01:48:45;;;;;;;;;2.00;2.00;;;;;12.98;77.15;100525.56;146605;622;46016;-74
2021/10/15 01:51:19;;;;;;;;;1.67;1.67;;;;;12.98;77.25;100528.16;146606;619;46905;-73
2021/10/15 01:53:53;;;;;;;;;4.00;3.33;;;;;13.01;77.11;100517.88;146604;726;46016;-73
2021/10/15 01:56:27;;;;;;;;;1.00;1.00;;;;;13.04;77.16;100511.06;146608;606;46010;-72
2021/10/15 01:59:00;;;;;;;;;1.00;1.00;;;;;13.06;77.27;100501.59;146605;665;46016;-74
2021/10/15 02:01:34;;;;;;;;;1.00;1.00;;;;;13.09;76.90;100504.31;146604;608;46021;-74
2021/10/15 02:04:08;;;;;;;;;0.33;0.33;;;;;13.08;76.76;100497.34;146603;569;47012;-73
2021/10/15 02:06:42;;;;;;;;;1.67;1.67;;;;;13.09;77.12;100491.31;146610;595;45020;-73
2021/10/15 02:09:16;;;;;;;;;1.33;0.67;;;;;13.08;77.61;100479.12;146603;579;46013;-73
2021/10/15 02:11:50;;;;;;;;;1.67;1.33;;;;;13.11;78.09;100471.41;146610;596;46020;-72
2021/10/15 02:14:24;;;;;;;;;1.00;1.00;;;;;13.10;78.50;100474.84;146607;578;46012;-74
2021/10/15 02:16:58;;;;;;;;;0.00;0.00;;;;;13.07;78.28;100476.47;146609;664;46021;-73
2021/10/15 02:19:32;;;;;;;;;2.33;1.33;;;;;13.05;78.38;100496.31;146606;621;46012;-74
2021/10/15 02:22:06;;;;;;;;;1.00;1.00;;;;;13.02;77.48;100496.22;146607;602;47010;-72
2021/10/15 02:24:41;;;;;;;;;2.00;1.00;;;;;13.01;77.34;100499.66;146605;639;47913;-72
2021/10/15 02:27:15;;;;;;;;;1.00;1.00;;;;;13.04;77.80;100510.19;146604;572;46905;-73
2021/10/15 02:29:49;;;;;;;;;1.33;1.33;;;;;13.03;77.75;100511.91;146605;563;46012;-71
2021/10/15 02:32:22;;;;;;;;;0.67;0.67;;;;;13.04;77.74;100507.56;146608;590;47010;-71
2021/10/15 02:34:56;;;;;;;;;0.67;0.67;;;;;13.04;77.79;100504.97;146603;698;47018;-71
2021/10/15 02:37:30;;;;;;;;;1.00;1.00;;;;;13.06;77.54;100516.34;146607;625;47010;-71
2021/10/15 02:40:04;;;;;;;;;1.00;1.00;;;;;13.05;77.75;100509.34;146604;617;46017;-71
2021/10/15 02:42:39;;;;;;;;;2.00;1.00;;;;;13.03;77.18;100516.22;146608;584;46012;-70
2021/10/15 02:45:14;;;;;;;;;3.00;3.00;;;;;13.03;77.06;100509.31;146606;622;46016;-71
2021/10/15 02:47:48;;;;;;;;;1.00;1.00;;;;;13.04;78.21;100518.00;146606;564;46021;-70
2021/10/15 02:50:21;;;;;;;;;1.00;1.00;;;;;13.06;77.84;100527.63;146607;563;46012;-70
2021/10/15 02:52:55;;;;;;;;;1.33;1.00;;;;;13.07;77.79;100511.19;146606;564;46020;-72
2021/10/15 02:55:29;;;;;;;;;1.33;1.33;;;;;13.06;78.71;100517.22;146606;598;46035;-72
2021/10/15 02:58:03;;;;;;;;;2.00;2.00;;;;;13.03;78.33;100524.91;146607;613;46020;-70
2021/10/15 03:00:37;;;;;;;;;2.00;2.00;;;;;13.01;77.98;100533.50;146605;574;46017;-73
2021/10/15 03:03:12;;;;;;;;;3.00;2.00;;;;;12.99;77.90;100525.63;146606;609;46021;-73
2021/10/15 03:05:46;;;;;;;;;3.00;2.00;;;;;12.97;79.01;100523.81;146603;591;46016;-72
2021/10/15 03:08:20;;;;;;;;;2.00;1.50;;;;;12.93;78.62;100525.41;146606;569;46021;-71
2021/10/15 03:10:54;;;;;;;;;2.00;2.00;;;;;12.90;78.47;100525.28;146604;619;46016;-72
2021/10/15 03:13:28;;;;;;;;;3.33;2.00;;;;;12.86;78.92;100513.84;146606;635;46020;-71
2021/10/15 03:16:02;;;;;;;;;2.00;2.00;;;;;12.82;79.47;100526.69;146603;565;46017;-72
2021/10/15 03:18:36;;;;;;;;;4.00;2.67;;;;;12.76;79.48;100537.75;146603;654;46020;-72
2021/10/15 03:21:10;;;;;;;;;1.00;1.00;;;;;12.70;78.54;100535.78;146604;583;47014;-71
2021/10/15 03:23:44;;;;;;;;;1.67;1.33;;;;;12.70;78.83;100542.69;146608;650;46021;-72
2021/10/15 03:26:18;;;;;;;;;2.00;2.00;;;;;12.68;78.75;100527.03;146606;564;46016;-74
2021/10/15 03:28:52;;;;;;;;;1.00;1.00;;;;;12.71;78.49;100521.09;146607;633;46010;-72
2021/10/15 03:31:26;;;;;;;;;1.00;1.00;;;;;12.74;78.46;100495.19;146605;572;46016;-72
2021/10/15 03:34:00;;;;;;;;;0.67;0.67;;;;;12.74;77.97;100461.38;146608;566;46020;-73
2021/10/15 03:36:34;;;;;;;;;1.00;1.00;;;;;12.71;79.23;100422.22;146605;563;46012;-73
2021/10/15 03:39:10;;;;;;;;;1.25;1.25;;;;;12.61;79.41;100422.69;146607;699;46010;-72
2021/10/15 03:41:44;;;;;;;;;1.00;0.33;;;;;12.51;78.36;100398.03;146606;627;47012;-73
2021/10/15 03:44:18;;;;;;;;;0.50;0.50;;;;;12.48;79.42;100393.59;146602;622;46020;-73
2021/10/15 03:46:52;;;;;;;;;1.00;1.00;;;;;12.49;79.19;100386.69;146603;579;47914;-74
2021/10/15 03:49:26;;;;;;;;;3.00;3.00;;;;;12.52;78.68;100384.19;146606;600;46020;-73
2021/10/15 03:52:00;;;;;;;;;5.33;3.00;;;;;12.55;79.99;100388.63;146603;614;47018;-74
2021/10/15 03:54:34;;;;;;;;;0.67;0.67;;;;;12.52;80.60;100405.00;146606;561;47010;-73
2021/10/15 03:57:08;;;;;;;;;3.33;3.33;;;;;12.52;80.05;100419.72;146604;631;46016;-73
2021/10/15 03:59:42;;;;;;;;;1.00;1.00;;;;;12.52;80.31;100430.13;146607;600;46020;-73
2021/10/15 04:02:16;;;;;;;;;0.00;0.00;;;;;12.54;80.02;100447.56;146605;579;46016;-73
2021/10/15 04:04:50;;;;;;;;;0.00;0.00;;;;;12.57;79.22;100433.81;146610;652;46020;-73
2021/10/15 04:07:23;;;;;;;;;1.00;1.00;;;;;12.61;79.72;100433.97;146605;596;46024;-73
2021/10/15 04:09:57;;;;;;;;;1.00;1.00;;;;;12.65;78.82;100422.88;146606;586;46020;-73
2021/10/15 04:12:31;;;;;;;;;0.00;0.00;;;;;12.70;78.54;100430.84;146603;563;47014;-73
2021/10/15 04:15:06;;;;;;;;;0.00;0.00;;;;;12.73;78.03;100443.97;146607;693;46021;-72
2021/10/15 04:17:40;;;;;;;;;0.00;0.00;;;;;12.74;77.56;100426.63;146603;674;46016;-73
2021/10/15 04:20:14;;;;;;;;;0.00;0.00;;;;;12.73;77.45;100417.94;146606;577;46020;-72
2021/10/15 04:22:48;;;;;;;;;1.00;0.00;;;;;12.76;77.56;100406.78;146603;591;46017;-73
2021/10/15 04:25:22;;;;;;;;;1.00;1.00;;;;;12.77;77.70;100406.81;146610;599;46020;-73
2021/10/15 04:27:56;;;;;;;;;1.00;1.00;;;;;12.80;77.46;100409.53;146605;594;46024;-72
2021/10/15 04:30:30;;;;;;;;;1.33;1.33;;;;;12.85;77.78;100425.31;146608;576;46021;-73
2021/10/15 04:33:03;;;;;;;;;1.00;1.00;;;;;12.86;78.00;100427.97;146603;569;46016;-73
2021/10/15 04:35:37;;;;;;;;;3.33;1.00;;;;;12.87;78.13;100419.34;146605;593;46020;-73
2021/10/15 04:38:11;;;;;;;;;2.00;2.00;;;;;12.88;78.55;100415.03;146605;591;46017;-73
2021/10/15 04:40:45;;;;;;;;;1.00;1.00;;;;;12.88;77.94;100426.31;146605;591;46031;-73
2021/10/15 04:43:19;;;;;;;;;1.00;1.00;;;;;12.89;78.94;100432.41;146605;604;47012;-73
2021/10/15 04:45:53;;;;;;;;;0.67;0.67;;;;;12.88;78.46;100431.53;146607;571;46021;-73
2021/10/15 04:48:27;;;;;;;;;2.00;2.00;;;;;12.85;78.80;100439.22;146604;582;46016;-73
2021/10/15 04:51:01;;;;;;;;;2.00;2.00;;;;;12.84;78.97;100431.38;146608;594;46020;-74
2021/10/15 04:53:35;;;;;;;;;2.00;2.00;;;;;12.82;78.24;100430.41;146604;640;46016;-73
2021/10/15 04:56:09;;;;;;;;;2.50;2.50;;;;;12.84;77.99;100426.16;146605;579;46020;-74
2021/10/15 04:58:43;;;;;;;;;4.00;4.00;;;;;12.86;78.24;100422.75;146604;661;46027;-73
2021/10/15 05:01:16;;;;;;;;;3.50;3.50;;;;;12.90;77.94;100418.59;146607;564;46010;-73
2021/10/15 05:03:50;;;;;;;;;3.25;3.25;;;;;12.93;78.05;100414.38;146602;583;47012;-73
2021/10/15 05:06:24;;;;;;;;;4.25;3.00;;;;;12.97;78.53;100415.38;146606;666;46020;-72
2021/10/15 05:12:03;;;;;;;;;3.75;3.75;;;;;12.99;78.43;100399.78;146609;580;46010;-73
2021/10/15 05:14:38;;;;;;;;;1.33;1.33;;;;;12.99;78.78;100395.50;146604;596;46017;-73
2021/10/15 05:17:12;;;;;;;;;2.00;1.00;;;;;12.94;78.95;100397.03;146608;581;46020;-73
2021/10/15 05:19:46;;;;;;;;;2.00;1.00;;;;;12.89;78.92;100398.59;146605;583;46016;-73
2021/10/15 05:22:20;;;;;;;;;3.75;2.00;;;;;12.85;78.32;100400.19;146604;663;46021;-73
2021/10/15 05:24:54;;;;;;;;;4.25;3.00;;;;;12.83;78.61;100404.44;146603;707;46025;-73
2021/10/15 05:27:28;;;;;;;;;2.00;2.00;;;;;12.81;79.27;100387.91;146607;606;45022;-74
2021/10/15 05:30:02;;;;;;;;;1.67;1.00;;;;;12.80;79.02;100385.22;146605;579;46017;-73
2021/10/15 05:32:37;;;;;;;;;1.00;0.00;;;;;12.75;79.66;100397.22;146607;569;47010;-73
2021/10/15 05:35:12;;;;;;;;;1.00;1.00;;;;;12.72;79.00;100397.97;146605;637;46016;-73
2021/10/15 05:37:46;;;;;;;;;0.00;0.00;;;;;12.67;80.22;100405.59;146606;605;46021;-73
2021/10/15 05:40:20;;;;;;;;;1.00;0.00;;;;;12.63;79.50;100413.22;146606;570;46016;-73
2021/10/15 05:42:54;;;;;;;;;1.00;1.00;;;;;12.60;80.12;100418.31;146608;628;46020;-73
2021/10/15 05:45:27;;;;;;;;;3.00;1.67;;;;;12.55;80.11;100419.84;146606;599;46020;-73
2021/10/15 05:48:01;;;;;;;;;0.33;0.33;;;;;12.54;80.36;100416.37;146608;563;46020;-74
2021/10/15 05:50:35;;;;;;;;;1.00;1.00;;;;;12.53;80.16;100424.13;146604;653;46018;-72
2021/10/15 05:53:13;;;;;;;;;1.33;0.00;;;;;12.50;80.21;100421.41;146608;569;46010;-74
2021/10/15 05:56:22;;;;;;;;;1.00;1.00;;;;;12.51;80.82;100417.97;146605;563;46016;-73
2021/10/15 05:59:03;;;;;;;;;0.33;0.33;;;;;12.54;80.34;100421.56;146605;570;46021;-73
2021/10/15 06:01:38;;;;;;;;;1.00;1.00;;;;;12.55;80.44;100412.91;146605;627;46016;-73
2021/10/15 06:04:53;;;;;;;;;1.00;1.00;;;;;12.58;80.88;100409.56;146604;646;47012;-73
2021/10/15 06:15:56;;;;;;;;;0.00;0.00;;;;;12.68;79.92;100438.59;146606;627;46021;-74
2021/10/15 06:18:37;;;;;;;;;1.00;1.00;;;;;12.69;80.46;100432.56;146601;710;47018;-72
2021/10/15 06:21:11;;;;;;;;;0.00;0.00;;;;;12.68;79.91;100437.72;146605;578;47008;-73
2021/10/15 06:23:45;;;;;;;;;0.00;0.00;;;;;12.69;79.32;100455.09;146606;586;46016;-72
2021/10/15 06:26:19;;;;;;;;;1.00;1.00;;;;;12.70;79.18;100459.44;146608;622;46020;-72
2021/10/15 06:28:53;;;;;;;;;1.00;1.00;;;;;12.69;79.67;100470.69;146604;582;46016;-73
2021/10/15 06:31:29;;;;;;;;;0.33;0.33;;;;;12.69;79.73;100471.56;146605;570;47010;-73
2021/10/15 06:34:03;;;;;;;;;1.67;1.00;;;;;12.67;79.46;100481.03;146601;609;46016;-72
2021/10/15 06:36:37;;;;;;;;;1.67;1.67;;;;;12.73;79.27;100482.09;146605;566;46021;-72
2021/10/15 06:39:11;;;;;;;;;1.25;1.25;;;;;12.76;79.02;100469.22;146601;577;46016;-72
2021/10/15 06:41:45;;;;;;;;;2.25;2.00;;;;;12.82;78.94;100477.25;146611;574;46010;-73
2021/10/15 06:44:19;;;;;;;;;3.33;1.33;;;;;12.87;78.97;100488.72;146604;615;46016;-72
2021/10/15 06:46:53;;;;;;;;;1.00;0.67;;;;;12.90;79.00;100494.06;146605;583;46020;-73
2021/10/15 06:49:27;;;;;;;;;1.00;1.00;;;;;12.93;78.39;100486.38;146605;597;46016;-73
2021/10/15 06:52:01;;;;;;;;;2.00;2.00;;;;;12.98;78.21;100490.00;146609;604;46020;-73
2021/10/15 06:54:35;;;;;;;;;1.00;1.00;;;;;13.00;78.34;100490.09;146604;600;46016;-72
2021/10/15 06:57:09;;;;;;;;;1.67;1.67;;;;;13.03;78.58;100492.81;146611;592;46020;-72
2021/10/15 06:59:43;;;;;;;;;2.00;2.00;;;;;13.05;77.97;100492.03;146606;588;46016;-72
2021/10/15 07:02:17;;;;;;;;;2.00;2.00;;;;;13.07;77.74;100490.34;146608;574;46020;-73
2021/10/15 07:04:50;;;;;;;;;2.00;2.00;;;;;13.10;77.64;100495.69;146604;592;46016;-73
2021/10/15 07:07:24;;;;;;;;;2.67;1.00;;;;;13.16;77.52;100505.44;146608;602;46021;-72
2021/10/15 07:10:03;;;;;;;;;3.00;3.00;;;;;13.20;78.23;100494.28;146603;591;46025;-72
2021/10/15 07:12:44;;;;;;;;;3.50;2.50;;;;;13.25;77.68;100508.41;146605;575;46020;-72
2021/10/15 07:15:19;;;;;;;;;2.00;2.00;;;;;13.28;77.34;100498.13;146603;624;46017;-72
2021/10/15 07:17:53;;;;;;;;;2.00;2.00;;;;;13.34;77.83;100498.34;146605;652;46020;-72
2021/10/15 07:20:27;;;;;;;;;2.33;2.33;;;;;13.36;78.44;100501.91;146604;631;46017;-72
2021/10/15 07:23:01;;;;;;;;;1.67;1.67;;;;;13.38;77.79;100500.22;146608;612;47012;-72
2021/10/15 07:25:35;;;;;;;;;2.00;2.00;;;;;13.38;78.17;100481.97;146605;611;46020;-72
2021/10/15 07:28:11;;;;;;;;;1.33;1.33;;;;;13.38;78.58;100478.50;146607;594;46021;-72
2021/10/15 07:30:45;;;;;;;;;1.67;1.67;;;;;13.35;78.32;100481.88;146604;579;46016;-72
2021/10/15 07:33:19;;;;;;;;;2.33;1.67;;;;;13.35;78.16;100468.84;146609;609;46020;-72
2021/10/15 07:35:53;;;;;;;;;3.50;3.25;;;;;13.39;78.23;100467.22;146604;581;47020;-74
2021/10/15 07:38:27;;;;;;;;;2.75;2.75;;;;;13.41;78.20;100478.59;146603;625;46020;-72
2021/10/15 07:41:00;;;;;;;;;4.00;3.25;;;;;13.42;77.78;100484.69;146602;693;46016;-72
2021/10/15 07:43:34;;;;;;;;;4.75;4.75;;;;;13.42;77.55;100495.13;146605;572;46021;-72
2021/10/15 07:46:08;;;;;;;;;3.33;3.33;;;;;13.44;78.13;100489.13;146606;582;45038;-72
2021/10/15 07:48:42;;;;;;;;;4.33;4.00;;;;;13.45;78.45;100487.41;146610;667;46010;-72
2021/10/15 07:51:17;;;;;;;;;5.75;5.75;;;;;13.48;78.09;100504.03;146603;607;46017;-72
2021/10/15 07:53:51;;;;;;;;;6.50;5.00;;;;;13.51;78.35;100490.22;146606;624;46020;-73
2021/10/15 07:56:25;;;;;;;;;5.75;5.75;;;;;13.54;78.50;100488.63;146603;622;46017;-73
2021/10/15 07:58:59;;;;;;;;;6.00;4.75;;;;;13.58;78.33;100476.59;146608;684;46023;-72
2021/10/15 08:01:33;;;;;;;;;4.00;2.00;;;;;13.60;77.76;100481.03;146604;621;47012;-72
2021/10/15 08:04:07;;;;;;;;;2.67;2.67;;;;;13.63;77.70;100486.34;146605;579;46020;-72
2021/10/15 08:06:40;;;;;;;;;3.50;3.50;;;;;13.67;78.19;100470.81;146605;571;46021;-72
2021/10/15 08:09:14;;;;;;;;;4.25;4.00;;;;;13.72;77.94;100464.06;146607;673;46905;-72
2021/10/15 08:11:48;;;;;;;;;3.75;3.75;;;;;13.79;77.76;100469.50;146604;596;46012;-72
2021/10/15 08:14:23;;;;;;;;;4.25;4.25;;;;;13.83;77.89;100465.28;146605;567;46021;-72
2021/10/15 08:16:57;;;;;;;;;2.33;2.33;;;;;13.85;77.39;100469.72;146606;632;46018;-72
2021/10/15 08:19:31;;;;;;;;;2.00;2.00;;;;;13.83;76.32;100461.00;146607;632;46021;-72
2021/10/15 08:22:05;;;;;;;;;4.00;3.33;;;;;13.85;76.59;100461.03;146606;628;47913;-72
2021/10/15 08:24:39;;;;;;;;;5.67;4.67;;;;;13.85;76.96;100469.72;146607;591;46020;-73
2021/10/15 08:27:13;;;;;;;;;3.50;2.50;;;;;13.87;76.10;100469.78;146603;576;46017;-71
2021/10/15 08:29:47;;;;;;;;;4.00;4.00;;;;;13.91;76.68;100469.06;146605;641;46020;-72
2021/10/15 08:32:21;;;;;;;;;4.00;4.00;;;;;13.94;76.94;100481.31;146601;633;46913;-72
2021/10/15 08:34:55;;;;;;;;;6.25;5.00;;;;;13.92;76.87;100478.63;146608;590;45021;-72
2021/10/15 08:37:29;;;;;;;;;8.25;6.50;;;;;13.90;76.91;100475.09;146605;694;46016;-73
2021/10/15 08:40:03;;;;;;;;;14.25;11.25;;;;;13.85;77.25;100477.53;146606;582;46020;-72
2021/10/15 08:42:37;;;;;;;;;7.50;7.00;;;;;13.82;77.30;100484.37;146602;580;46016;-73
2021/10/15 08:45:12;;;;;;;;;6.25;6.25;;;;;13.75;77.53;100485.88;146605;569;46034;-73
2021/10/15 08:47:46;;;;;;;;;7.00;6.25;;;;;13.70;77.47;100486.56;146604;570;46016;-73
2021/10/15 08:50:20;;;;;;;;;8.25;6.75;;;;;13.65;77.80;100464.69;146607;586;46021;-72
2021/10/15 08:52:56;;;;;;;;;7.25;6.00;;;;;13.61;78.30;100484.50;146605;671;46012;-73
2021/10/15 08:55:31;;;;;;;;;7.75;7.25;;;;;13.59;78.57;100473.16;146606;584;46020;-73
2021/10/15 08:58:05;;;;;;;;;8.00;7.75;;;;;13.58;77.85;100480.09;146603;595;46017;-72
2021/10/15 09:00:41;;;;;;;;;7.50;7.50;;;;;13.59;78.59;100487.06;146606;580;46020;-73
2021/10/15 09:03:21;;;;;;;;;6.00;4.33;;;;;13.64;78.32;100489.81;146604;609;46033;-73
2021/10/15 09:06:07;;;;;;;;;6.67;5.33;;;;;13.68;78.05;100485.63;146607;660;46021;-73
2021/10/15 09:08:58;;;;;;;;;7.00;7.00;;;;;13.70;77.79;100490.03;146603;618;47018;-72
2021/10/15 09:11:41;;;;;;;;;8.00;7.50;;;;;12.50;77.03;100281.84;146608;579;46020;-72
2021/10/15 09:14:27;;;;;;;;;4.00;3.00;;;;;13.81;77.81;100490.44;146602;634;46016;-70
2021/10/15 09:17:15;;;;;;;;;3.00;3.00;;;;;13.98;77.88;100489.25;146605;609;47010;-70
2021/10/15 09:19:51;;;;;;;;;4.33;4.00;;;;;14.21;77.99;100497.87;146603;584;46017;-71
2021/10/15 09:22:36;;;;;;;;;45.25;36.50;;;;;14.47;77.48;100508.25;146607;601;46008;-69
2021/10/15 09:25:15;;;;;;;;;46.25;38.75;;;;;14.69;76.89;100502.91;146600;615;46016;-68
2021/10/15 09:27:52;;;;;;;;;43.25;32.00;;;;;14.89;76.50;100508.75;146604;655;46021;-70
2021/10/15 09:30:30;;;;;;;;;12.00;8.50;;;;;14.99;74.13;100496.84;146604;605;46012;-71
2021/10/15 09:33:05;;;;;;;;;48.75;37.50;;;;;15.02;75.06;100500.44;146606;578;46020;-71
2021/10/15 09:35:39;;;;;;;;;6.67;5.33;;;;;14.97;74.85;100495.91;146603;666;47012;-70
2021/10/15 09:38:14;;;;;;;;;7.00;6.25;;;;;14.86;75.76;100495.59;146605;575;46020;-71
2021/10/15 09:40:51;;;;;;;;;23.00;22.25;;;;;14.72;75.43;100470.78;146603;627;46016;-70
2021/10/15 09:43:37;;;;;;;;;81.67;73.00;;;;;14.64;76.12;100465.34;146607;581;46020;-70
2021/10/15 09:46:24;;;;;;;;;20.25;15.50;;;;;14.58;76.42;100464.25;146603;616;46012;-70
2021/10/15 09:48:58;;;;;;;;;6.00;6.00;;;;;14.47;76.84;100458.69;146605;635;46020;-71
2021/10/15 09:51:32;;;;;;;;;10.50;9.25;;;;;14.34;77.19;100460.03;146605;647;46913;-70
2021/10/15 09:54:22;;;;;;;;;16.00;11.25;;;;;14.26;77.20;100441.50;146606;603;46020;-70
2021/10/15 09:56:56;;;;;;;;;9.00;7.00;;;;;14.26;77.57;100419.78;146603;581;46017;-70
2021/10/15 09:59:46;;;;;;;;;12.50;10.75;;;;;14.28;76.94;100392.91;146607;612;46010;-70
2021/10/15 10:02:19;;;;;;;;;15.75;13.00;;;;;14.34;77.19;100379.16;146602;580;47016;-69
2021/10/15 10:04:57;;;;;;;;;10.75;8.50;;;;;14.38;78.26;100380.16;146607;578;46020;-74
2021/10/15 10:07:31;;;;;;;;;6.00;6.00;;;;;14.31;77.86;100379.06;146603;574;46016;-72
2021/10/15 10:10:06;;;;;;;;;4.67;4.67;;;;;14.25;78.52;100384.97;146609;593;46029;-73
2021/10/15 10:12:42;;;;;;;;;5.00;5.00;;;;;14.12;77.74;100392.38;146604;615;46016;-73
2021/10/15 10:15:19;;;;;;;;;8.00;7.75;;;;;14.02;79.14;100406.84;146605;594;46012;-72
2021/10/15 10:18:28;;;;;;;;;8.00;7.00;;;;;13.93;79.47;100414.38;146601;580;47913;-72
2021/10/15 10:21:22;;;;;;;;;5.75;5.00;;;;;13.79;79.14;100429.53;146607;581;46012;-72
2021/10/15 10:24:04;;;;;;;;;6.00;6.00;;;;;13.76;79.04;100458.09;146604;634;47012;-73
2021/10/15 10:26:51;;;;;;;;;5.25;4.25;;;;;13.75;79.50;100474.59;146609;625;46013;-73
2021/10/15 10:29:25;;;;;;;;;8.25;7.00;;;;;13.69;79.97;100479.59;146603;667;47018;-72
2021/10/15 10:32:20;;;;;;;;;43.25;36.00;;;;;11.49;78.41;100098.78;146607;719;46029;-73
2021/10/15 10:34:55;;;;;;;;;6.67;6.00;;;;;13.61;79.50;100458.44;146604;624;46016;-72
2021/10/15 10:37:29;;;;;;;;;8.50;6.50;;;;;13.61;78.67;100442.81;146608;596;46010;-72
2021/10/15 10:40:13;;;;;;;;;3.50;3.50;;;;;13.65;78.19;100442.12;146604;622;46913;-71
2021/10/15 10:43:09;;;;;;;;;3.00;3.00;;;;;13.66;77.99;100440.41;146606;589;46020;-71
2021/10/15 10:46:17;;;;;;;;;7.00;7.00;;;;;11.65;78.16;100095.03;146604;657;47018;-71
2021/10/15 10:49:19;;;;;;;;;5.00;4.00;;;;;12.40;78.08;100188.75;146605;606;47011;-71
2021/10/15 10:52:22;;;;;;;;;7.00;6.00;;;;;13.65;79.62;100400.44;146603;639;46018;-71
2021/10/15 10:54:56;;;;;;;;;12.00;12.00;;;;;13.58;79.98;100398.44;146608;579;46021;-72
2021/10/15 10:57:36;;;;;;;;;13.00;10.75;;;;;13.51;80.30;100388.66;146602;625;46016;-72
2021/10/15 11:00:24;;;;;;;;;6.50;6.25;;;;;13.45;79.77;100378.91;146607;615;46012;-72
2021/10/15 11:03:00;;;;;;;;;9.00;9.00;;;;;13.46;79.93;100371.97;146605;686;46013;-71
2021/10/15 11:05:44;;;;;;;;;10.50;9.25;;;;;13.46;79.70;100354.66;146608;647;46020;-72
2021/10/15 11:08:34;;;;;;;;;19.75;18.25;;;;;13.49;79.73;100351.22;146605;571;46012;-71
2021/10/15 11:11:43;;;;;;;;;9.00;6.00;;;;;12.29;80.38;100112.97;146605;596;46021;-71
2021/10/15 11:14:25;;;;;;;;;9.00;8.00;;;;;13.46;81.67;100317.28;146600;554;46016;-71
2021/10/15 11:17:15;;;;;;;;;12.75;10.50;;;;;13.40;81.48;100308.44;146610;575;45021;-71
2021/10/15 11:19:52;;;;;;;;;12.25;10.50;;;;;13.44;80.85;100290.31;146604;684;46012;-71
2021/10/15 11:22:26;;;;;;;;;13.50;12.50;;;;;13.48;80.69;100248.78;146602;575;47010;-70
2021/10/15 11:25:00;;;;;;;;;15.75;14.75;;;;;13.62;80.52;100244.03;146602;645;46017;-71
2021/10/15 11:27:34;;;;;;;;;16.75;14.25;;;;;13.79;81.37;100250.63;146609;569;46010;-72
2021/10/15 11:30:13;;;;;;;;;25.25;24.50;;;;;13.99;82.21;100263.41;146603;630;46012;-71
2021/10/15 11:32:51;;;;;;;;;33.75;30.00;;;;;14.16;83.03;100269.09;146609;621;45021;-71
2021/10/15 11:35:33;;;;;;;;;15.25;12.75;;;;;14.27;80.70;100289.44;146602;634;46034;-73
2021/10/15 11:38:18;;;;;;;;;5.00;5.00;;;;;14.38;78.64;100312.31;146606;689;47008;-72
2021/10/15 11:40:55;;;;;;;;;10.25;9.25;;;;;14.48;79.66;100325.66;146606;629;46012;-73
2021/10/15 11:43:34;;;;;;;;;6.25;5.00;;;;;14.60;79.36;100316.47;146606;613;46012;-73
2021/10/15 11:46:26;;;;;;;;;5.00;5.00;;;;;14.80;79.63;100328.37;146603;655;47013;-74
2021/10/15 11:49:00;;;;;;;;;7.75;7.75;;;;;14.97;78.62;100320.97;146607;570;47012;-74
2021/10/15 11:51:34;;;;;;;;;14.25;13.25;;;;;15.13;76.98;100310.09;146603;586;46016;-74
2021/10/15 11:54:08;;;;;;;;;4.75;4.00;;;;;15.27;77.13;100304.38;146607;621;46021;-73
2021/10/15 11:56:42;;;;;;;;;5.75;5.50;;;;;15.33;76.44;100301.91;146604;577;47012;-73
2021/10/15 11:59:16;;;;;;;;;12.75;11.50;;;;;15.36;76.52;100286.31;146608;672;46020;-73
2021/10/15 12:01:49;;;;;;;;;11.00;7.50;;;;;15.39;76.75;100270.69;146605;562;46017;-73
2021/10/15 12:04:23;;;;;;;;;10.50;8.00;;;;;15.40;76.64;100264.63;146606;608;46020;-73
2021/10/15 12:06:57;;;;;;;;;10.25;9.25;;;;;15.41;76.72;100259.44;146602;685;46016;-74
2021/10/15 12:09:31;;;;;;;;;5.00;4.33;;;;;15.34;76.72;100241.84;146607;624;46021;-73
2021/10/15 12:12:11;;;;;;;;;6.67;6.67;;;;;15.17;76.49;100232.69;146605;581;46016;-74
2021/10/15 12:14:45;;;;;;;;;8.33;7.33;;;;;15.03;77.16;100227.16;146606;652;46020;-73
2021/10/15 12:17:23;;;;;;;;;7.67;7.67;;;;;15.00;77.60;100220.13;146602;592;46027;-72